createdAt,value
2019-04-20T00:00:37.181Z,3.50
2019-04-20T00:03:05.694Z,2.93
2019-04-20T00:05:35.026Z,3.47
2019-04-20T00:08:09.167Z,2.90
2019-04-20T00:10:43.401Z,3.23
2019-04-20T00:13:17.589Z,3.07
2019-04-20T00:15:33.019Z,3.10
2019-04-20T00:18:04.621Z,3.70
2019-04-20T00:20:33.727Z,3.00
2019-04-20T00:23:03.728Z,2.83
2019-04-20T00:26:00.484Z,3.30
2019-04-20T00:28:37.482Z,3.60
2019-04-20T00:31:07.235Z,3.23
2019-04-20T00:33:32.158Z,3.43
2019-04-20T00:35:50.379Z,3.40
2019-04-20T00:38:18.643Z,3.80
2019-04-20T00:40:49.674Z,3.67
2019-04-20T00:43:21.216Z,4.17
2019-04-20T00:45:53.699Z,4.37
2019-04-20T00:48:32.870Z,4.43
2019-04-20T00:50:59.404Z,5.13
2019-04-20T00:53:22.892Z,8.13
2019-04-20T00:55:46.421Z,8.17
2019-04-20T00:58:22.291Z,7.53
2019-04-20T01:01:09.590Z,6.03
2019-04-20T01:03:27.711Z,5.40
2019-04-20T01:06:09.757Z,4.43
2019-04-20T01:08:32.250Z,3.87
2019-04-20T01:11:01.410Z,3.90
2019-04-20T01:13:31.665Z,4.30
2019-04-20T01:16:07.684Z,3.87
2019-04-20T01:18:29.883Z,3.90
2019-04-20T01:21:21.598Z,3.70
2019-04-20T01:23:53.298Z,3.57
2019-04-20T01:26:19.688Z,3.83
2019-04-20T01:28:58.601Z,3.60
2019-04-20T01:31:27.150Z,3.60
2019-04-20T01:33:56.319Z,3.53
2019-04-20T01:36:39.170Z,4.13
2019-04-20T01:38:56.423Z,3.90
2019-04-20T01:41:16.164Z,3.70
2019-04-20T01:43:44.384Z,4.03
2019-04-20T01:46:17.121Z,4.17
2019-04-20T01:48:43.418Z,3.70
2019-04-20T01:51:19.711Z,4.00
2019-04-20T01:54:02.147Z,3.77
2019-04-20T01:56:30.127Z,3.90
2019-04-20T01:59:09.244Z,3.70
2019-04-20T02:01:27.199Z,4.37
2019-04-20T02:04:01.752Z,4.27
2019-04-20T02:06:39.878Z,3.70
2019-04-20T02:09:10.149Z,3.90
2019-04-20T02:11:38.414Z,4.17
2019-04-20T02:14:09.021Z,4.10
2019-04-20T02:16:42.728Z,3.80
2019-04-20T02:19:22.999Z,4.13
2019-04-20T02:21:51.976Z,4.00
2019-04-20T02:24:08.948Z,4.10
2019-04-20T02:26:35.263Z,3.87
2019-04-20T02:29:30.488Z,4.40
2019-04-20T02:32:11.986Z,4.10
2019-04-20T02:37:16.914Z,3.90
2019-04-20T02:39:45.314Z,4.13
2019-04-20T02:47:14.091Z,4.20
2019-04-20T02:52:19.120Z,4.03
2019-04-20T02:54:36.980Z,4.47
2019-04-20T02:57:11.552Z,4.37
2019-04-20T03:01:55.238Z,4.93
2019-04-20T03:04:21.453Z,4.27
2019-04-20T03:06:55.018Z,4.13
2019-04-20T03:09:32.838Z,4.80
2019-04-20T03:12:03.265Z,4.30
2019-04-20T03:14:21.504Z,4.17
2019-04-20T03:16:55.241Z,4.47
2019-04-20T03:19:20.672Z,4.80
2019-04-20T03:22:05.074Z,4.57
2019-04-20T03:24:35.705Z,4.70
2019-04-20T03:26:56.609Z,4.47
2019-04-20T03:29:37.042Z,4.90
2019-04-20T03:35:00.529Z,4.53
2019-04-20T03:37:13.190Z,4.97
2019-04-20T03:39:37.626Z,4.73
2019-04-20T03:41:54.899Z,5.43
2019-04-20T03:44:24.394Z,4.90
2019-04-20T03:46:57.173Z,5.43
2019-04-20T03:49:42.414Z,5.80
2019-04-20T03:52:23.443Z,5.30
2019-04-20T03:55:07.596Z,5.73
2019-04-20T03:57:48.181Z,5.33
2019-04-20T04:00:24.999Z,5.70
2019-04-20T04:03:26.196Z,5.47
2019-04-20T04:05:38.497Z,6.23
2019-04-20T04:08:00.969Z,6.43
2019-04-20T04:10:31.628Z,6.63
2019-04-20T04:13:07.334Z,5.83
2019-04-20T04:15:42.706Z,5.87
2019-04-20T04:18:13.866Z,5.67
2019-04-20T04:20:44.325Z,6.27
2019-04-20T04:23:24.606Z,6.30
2019-04-20T04:25:55.666Z,6.10
2019-04-20T04:28:24.885Z,5.87
2019-04-20T04:30:59.460Z,6.33
2019-04-20T04:33:45.689Z,6.13
2019-04-20T04:35:52.717Z,6.20
2019-04-20T04:38:35.989Z,6.90
2019-04-20T04:43:27.770Z,6.77
2019-04-20T04:45:38.522Z,6.90
2019-04-20T04:48:13.148Z,7.43
2019-04-20T04:50:44.869Z,6.77
2019-04-20T04:53:12.094Z,7.53
2019-04-20T04:55:47.756Z,7.07
2019-04-20T04:58:06.487Z,7.60
2019-04-20T05:00:35.877Z,7.00
2019-04-20T05:03:23.118Z,7.77
2019-04-20T05:05:55.913Z,8.20
2019-04-20T05:08:15.478Z,7.60
2019-04-20T05:10:37.462Z,7.87
2019-04-20T05:13:07.043Z,8.23
2019-04-20T05:15:48.622Z,8.33
2019-04-20T05:18:28.969Z,7.27
2019-04-20T05:20:58.485Z,8.03
2019-04-20T05:23:20.762Z,8.17
2019-04-20T05:26:05.152Z,7.93
2019-04-20T05:28:24.248Z,7.70
2019-04-20T05:30:49.787Z,8.00
2019-04-20T05:33:25.521Z,7.90
2019-04-20T05:36:01.359Z,8.23
2019-04-20T05:38:43.136Z,8.00
2019-04-20T05:41:01.683Z,8.20
2019-04-20T05:43:33.006Z,8.50
2019-04-20T05:46:06.206Z,8.83
2019-04-20T05:48:32.024Z,8.50
2019-04-20T05:51:04.115Z,8.57
2019-04-20T05:53:38.544Z,8.90
2019-04-20T05:56:06.076Z,9.07
2019-04-20T05:58:32.762Z,8.23
2019-04-20T06:01:05.588Z,9.00
2019-04-20T06:03:32.428Z,8.60
2019-04-20T06:06:24.632Z,8.43
2019-04-20T06:08:47.929Z,8.60
2019-04-20T06:11:04.589Z,8.60
2019-04-20T06:13:36.687Z,7.97
2019-04-20T06:16:07.341Z,8.53
2019-04-20T06:18:44.090Z,8.47
2019-04-20T06:21:26.508Z,8.50
2019-04-20T06:23:56.417Z,8.47
2019-04-20T06:26:40.146Z,9.13
2019-04-20T06:28:49.888Z,8.20
2019-04-20T06:31:42.652Z,9.83
2019-04-20T06:34:19.800Z,8.90
2019-04-20T06:36:47.261Z,8.53
2019-04-20T06:39:32.661Z,8.67
2019-04-20T06:44:14.675Z,8.20
2019-04-20T06:46:54.273Z,9.43
2019-04-20T06:49:27.474Z,8.70
2019-04-20T06:51:47.587Z,9.03
2019-04-20T06:54:15.913Z,8.80
2019-04-20T06:57:01.684Z,8.63
2019-04-20T06:59:32.219Z,8.23
2019-04-20T07:02:03.897Z,9.53
2019-04-20T07:07:05.372Z,9.00
2019-04-20T07:12:02.893Z,8.07
2019-04-20T07:14:28.868Z,9.00
2019-04-20T07:17:17.949Z,7.27
2019-04-20T07:19:40.336Z,8.60
2019-04-20T07:22:24.952Z,8.27
2019-04-20T07:24:52.249Z,9.00
2019-04-20T07:27:17.000Z,8.90
2019-04-20T07:29:47.992Z,9.03
2019-04-20T07:32:07.618Z,8.00
2019-04-20T07:34:48.777Z,5.63
2019-04-20T07:37:51.602Z,9.03
2019-04-20T07:39:48.282Z,8.13
2019-04-20T07:42:24.194Z,9.07
2019-04-20T07:44:54.898Z,7.83
2019-04-20T07:47:24.185Z,5.63
2019-04-20T07:49:45.875Z,8.27
2019-04-20T07:51:57.659Z,9.33
2019-04-20T07:55:03.494Z,12.70
2019-04-20T07:57:14.673Z,8.73
2019-04-20T07:59:39.704Z,8.63
2019-04-20T08:02:33.850Z,9.40
2019-04-20T08:04:52.428Z,10.23
2019-04-20T08:07:07.781Z,9.40
2019-04-20T08:09:42.107Z,5.83
2019-04-20T08:12:31.336Z,9.40
2019-04-20T08:15:04.763Z,7.03
2019-04-20T08:17:33.993Z,8.37
2019-04-20T08:19:52.164Z,8.97
2019-04-20T08:22:26.986Z,10.10
2019-04-20T08:24:52.445Z,9.07
2019-04-20T08:27:14.227Z,9.27
2019-04-20T08:30:09.091Z,9.47
2019-04-20T08:32:41.463Z,9.10
2019-04-20T08:35:22.795Z,8.73
2019-04-20T08:37:59.704Z,9.67
2019-04-20T08:40:13.220Z,8.53
2019-04-20T08:43:00.536Z,7.87
2019-04-20T08:45:17.985Z,8.33
2019-04-20T08:48:09.821Z,7.57
2019-04-20T08:50:20.989Z,6.87
2019-04-20T08:55:10.624Z,5.93
2019-04-20T08:57:25.107Z,5.47
2019-04-20T08:59:54.343Z,7.67
2019-04-20T09:02:23.899Z,7.60
2019-04-20T09:04:59.123Z,7.00
2019-04-20T09:07:26.361Z,8.40
2019-04-20T09:10:16.574Z,7.03
2019-04-20T09:12:45.205Z,7.50
2019-04-20T09:14:59.560Z,5.70
2019-04-20T09:17:47.459Z,7.17
2019-04-20T09:20:16.166Z,6.50
2019-04-20T09:23:08.160Z,5.97
2019-04-20T09:25:59.029Z,5.47
2019-04-20T09:28:14.596Z,6.80
2019-04-20T09:30:42.874Z,5.93
2019-04-20T09:33:41.795Z,10.57
2019-04-20T09:36:09.748Z,14.40
2019-04-20T09:38:34.815Z,5.17
2019-04-20T09:41:13.387Z,5.70
2019-04-20T09:43:28.257Z,16.93
2019-04-20T09:46:01.466Z,27.27
2019-04-20T09:48:34.670Z,20.40
2019-04-20T09:51:19.239Z,7.07
2019-04-20T09:53:39.299Z,31.23
2019-04-20T09:56:11.709Z,31.77
2019-04-20T09:58:46.460Z,7.70
2019-04-20T10:01:09.776Z,10.90
2019-04-20T10:03:26.768Z,31.80
2019-04-20T10:05:55.938Z,10.20
2019-04-20T10:08:24.251Z,5.87
2019-04-20T10:10:52.912Z,5.97
2019-04-20T10:13:27.654Z,6.80
2019-04-20T10:15:55.836Z,4.70
2019-04-20T10:18:23.960Z,36.23
2019-04-20T10:20:52.070Z,42.17
2019-04-20T10:23:20.691Z,5.00
2019-04-20T10:25:49.095Z,5.20
2019-04-20T10:28:17.349Z,22.87
2019-04-20T10:30:46.318Z,21.63
2019-04-20T10:33:15.471Z,5.90
2019-04-20T10:35:43.718Z,19.57
2019-04-20T10:38:25.568Z,14.43
2019-04-20T10:41:04.467Z,33.17
2019-04-20T10:43:23.944Z,38.43
2019-04-20T10:45:53.004Z,32.17
2019-04-20T10:48:21.436Z,6.27
2019-04-20T10:50:49.740Z,13.50
2019-04-20T10:53:17.887Z,21.87
2019-04-20T10:55:47.324Z,18.70
2019-04-20T10:58:15.654Z,9.13
2019-04-20T11:00:46.058Z,12.10
2019-04-20T11:03:15.730Z,5.13
2019-04-20T11:05:44.643Z,4.83
2019-04-20T11:08:13.110Z,5.20
2019-04-20T11:10:55.781Z,5.03
2019-04-20T11:13:11.838Z,4.93
2019-04-20T11:15:40.015Z,6.07
2019-04-20T11:18:09.252Z,13.63
2019-04-20T11:20:37.492Z,15.27
2019-04-20T11:23:06.600Z,5.57
2019-04-20T11:25:34.894Z,4.80
2019-04-20T11:28:04.020Z,5.23
2019-04-20T11:30:32.400Z,6.97
2019-04-20T11:33:00.734Z,7.83
2019-04-20T11:35:34.701Z,5.60
2019-04-20T11:37:59.204Z,5.13
2019-04-20T11:40:27.320Z,4.67
2019-04-20T11:42:57.532Z,5.10
2019-04-20T11:45:26.711Z,4.87
2019-04-20T11:47:55.738Z,5.20
2019-04-20T11:50:25.269Z,4.90
2019-04-20T11:52:53.555Z,6.40
2019-04-20T11:55:22.402Z,5.27
2019-04-20T11:57:51.336Z,5.17
2019-04-20T12:00:25.347Z,4.20
2019-04-20T12:03:16.039Z,5.00
2019-04-20T12:05:42.805Z,5.97
2019-04-20T12:08:09.226Z,6.37
2019-04-20T12:10:39.069Z,5.43
2019-04-20T12:13:07.926Z,4.80
2019-04-20T12:15:38.663Z,4.43
2019-04-20T12:18:07.506Z,4.10
2019-04-20T12:20:36.670Z,5.27
2019-04-20T12:23:06.325Z,5.03
2019-04-20T12:25:36.710Z,5.07
2019-04-20T12:28:05.345Z,5.03
2019-04-20T12:30:33.635Z,5.77
2019-04-20T12:33:02.464Z,4.80
2019-04-20T12:35:32.014Z,7.10
2019-04-20T12:38:00.983Z,6.33
2019-04-20T12:40:30.139Z,7.93
2019-04-20T12:42:59.215Z,4.90
2019-04-20T12:45:27.736Z,4.60
2019-04-20T12:47:55.868Z,4.47
2019-04-20T12:50:25.584Z,5.47
2019-04-20T12:52:54.754Z,4.57
2019-04-20T12:55:23.184Z,5.17
2019-04-20T12:57:52.507Z,4.90
2019-04-20T13:00:21.538Z,4.63
2019-04-20T13:02:49.961Z,5.20
2019-04-20T13:05:19.478Z,5.60
2019-04-20T13:07:55.131Z,4.57
2019-04-20T13:10:18.830Z,4.83
2019-04-20T13:12:52.319Z,4.33
2019-04-20T13:15:32.445Z,4.90
2019-04-20T13:18:01.360Z,4.10
2019-04-20T13:20:30.025Z,4.70
2019-04-20T13:22:59.989Z,4.70
2019-04-20T13:25:28.798Z,4.60
2019-04-20T13:27:57.025Z,4.30
2019-04-20T13:30:25.907Z,4.97
2019-04-20T13:32:54.177Z,5.23
2019-04-20T13:35:22.573Z,5.03
2019-04-20T13:37:51.968Z,4.97
2019-04-20T13:40:20.214Z,4.67
2019-04-20T13:42:49.782Z,4.50
2019-04-20T13:45:19.147Z,4.43
2019-04-20T13:47:48.647Z,4.87
2019-04-20T13:50:17.979Z,5.13
2019-04-20T13:52:46.887Z,5.17
2019-04-20T13:55:36.011Z,5.80
2019-04-20T13:58:09.879Z,5.07
2019-04-20T14:00:43.390Z,4.50
2019-04-20T14:03:14.231Z,4.30
2019-04-20T14:05:42.732Z,5.17
2019-04-20T14:08:11.648Z,5.03
2019-04-20T14:10:39.899Z,5.13
2019-04-20T14:13:14.513Z,5.27
2019-04-20T14:15:37.859Z,5.20
2019-04-20T14:18:06.967Z,4.00
2019-04-20T14:20:36.226Z,3.80
2019-04-20T14:23:05.303Z,4.27
2019-04-20T14:25:33.540Z,5.03
2019-04-20T14:28:21.067Z,4.20
2019-04-20T14:30:49.957Z,4.37
2019-04-20T14:33:18.930Z,4.33
2019-04-20T14:35:48.324Z,3.60
2019-04-20T14:38:17.626Z,4.33
2019-04-20T14:40:46.304Z,4.23
2019-04-20T14:43:15.064Z,4.30
2019-04-20T14:45:43.286Z,4.00
2019-04-20T14:48:12.018Z,4.03
2019-04-20T14:50:41.296Z,4.27
2019-04-20T14:53:09.601Z,3.60
2019-04-20T14:55:37.786Z,3.90
2019-04-20T14:58:07.870Z,4.30
2019-04-20T15:00:53.100Z,4.70
2019-04-20T15:03:33.155Z,6.30
2019-04-20T15:06:03.058Z,4.07
2019-04-20T15:08:32.500Z,3.83
2019-04-20T15:11:01.059Z,4.97
2019-04-20T15:13:29.307Z,3.70
2019-04-20T15:15:58.911Z,3.90
2019-04-20T15:18:29.356Z,3.83
2019-04-20T15:20:59.577Z,4.30
2019-04-20T15:23:27.924Z,3.80
2019-04-20T15:25:56.145Z,4.10
2019-04-20T15:28:24.280Z,3.63
2019-04-20T15:30:52.437Z,3.67
2019-04-20T15:33:21.025Z,3.43
2019-04-20T15:35:50.341Z,3.77
2019-04-20T15:38:18.707Z,3.63
2019-04-20T15:40:47.010Z,3.07
2019-04-20T15:43:20.304Z,3.03
2019-04-20T15:45:45.382Z,2.90
2019-04-20T15:48:14.284Z,2.97
2019-04-20T15:50:43.638Z,3.13
2019-04-20T15:53:13.418Z,2.77
2019-04-20T15:55:43.450Z,2.93
2019-04-20T15:58:12.321Z,2.63
2019-04-20T16:00:40.753Z,2.40
2019-04-20T16:03:11.576Z,2.57
2019-04-20T16:05:47.476Z,2.67
2019-04-20T16:08:18.354Z,2.97
2019-04-20T16:10:46.537Z,2.47
2019-04-20T16:13:22.146Z,2.80
2019-04-20T16:15:45.552Z,2.70
2019-04-20T16:18:14.778Z,2.80
2019-04-20T16:20:53.596Z,2.80
2019-04-20T16:23:14.413Z,2.40
2019-04-20T16:25:47.820Z,2.57
2019-04-20T16:28:17.277Z,3.03
2019-04-20T16:30:45.656Z,3.03
2019-04-20T16:33:14.681Z,2.60
2019-04-20T16:35:42.929Z,2.80
2019-04-20T16:38:11.033Z,2.80
2019-04-20T16:40:39.128Z,3.00
2019-04-20T16:43:17.779Z,2.60
2019-04-20T16:45:37.222Z,2.60
2019-04-20T16:48:06.769Z,2.67
2019-04-20T16:50:35.446Z,2.33
2019-04-20T16:53:04.575Z,2.90
2019-04-20T16:55:33.038Z,2.63
2019-04-20T16:58:01.748Z,2.83
2019-04-20T17:00:29.932Z,3.03
2019-04-20T17:02:58.465Z,2.80
2019-04-20T17:05:27.522Z,2.77
2019-04-20T17:07:57.551Z,2.80
2019-04-20T17:10:26.508Z,3.07
2019-04-20T17:12:55.689Z,2.80
2019-04-20T17:15:24.029Z,2.70
2019-04-20T17:17:53.960Z,2.80
2019-04-20T17:20:23.776Z,2.83
2019-04-20T17:22:51.925Z,2.90
2019-04-20T17:25:20.216Z,3.00
2019-04-20T17:30:56.979Z,2.97
2019-04-20T17:33:28.382Z,2.90
2019-04-20T17:36:04.555Z,3.00
2019-04-20T17:38:34.773Z,3.03
2019-04-20T17:41:38.535Z,2.80
2019-04-20T17:44:05.675Z,3.00
2019-04-20T17:46:30.990Z,2.73
2019-04-20T17:49:07.531Z,2.90
2019-04-20T17:51:34.437Z,3.33
2019-04-20T17:53:52.802Z,3.00
2019-04-20T17:56:17.313Z,2.70
2019-04-20T17:58:46.081Z,2.77
2019-04-20T18:01:35.788Z,2.90
2019-04-20T18:04:31.145Z,4.43
2019-04-20T18:06:43.338Z,3.50
2019-04-20T18:09:07.135Z,3.17
2019-04-20T18:11:27.481Z,3.00
2019-04-20T18:14:05.605Z,3.00
2019-04-20T18:16:53.018Z,3.53
2019-04-20T18:19:22.898Z,3.50
2019-04-20T18:21:49.792Z,3.30
2019-04-20T18:24:46.252Z,2.70
2019-04-20T18:27:02.993Z,3.00
2019-04-20T18:29:37.351Z,3.40
2019-04-20T18:31:53.360Z,3.17
2019-04-20T18:34:29.349Z,2.87
2019-04-20T18:37:02.136Z,2.80
2019-04-20T18:39:38.675Z,2.97
2019-04-20T18:42:10.158Z,2.77
2019-04-20T18:44:46.227Z,2.93
2019-04-20T18:47:16.686Z,2.70
2019-04-20T18:49:43.443Z,3.00
2019-04-20T18:51:59.818Z,3.37
2019-04-20T18:54:33.986Z,3.47
2019-04-20T18:56:59.699Z,3.30
2019-04-20T18:59:31.756Z,3.27
2019-04-20T19:01:59.262Z,3.70
2019-04-20T19:04:28.023Z,3.30
2019-04-20T19:06:57.454Z,3.07
2019-04-20T19:09:29.875Z,3.10
2019-04-20T19:12:00.901Z,3.50
2019-04-20T19:14:35.554Z,3.57
2019-04-20T19:17:13.281Z,3.30
2019-04-20T19:19:45.046Z,3.43
2019-04-20T19:22:10.173Z,3.03
2019-04-20T19:24:40.231Z,3.37
2019-04-20T19:27:12.561Z,3.13
2019-04-20T19:29:47.276Z,3.00
2019-04-20T19:32:23.896Z,4.30
2019-04-20T19:34:54.100Z,4.57
2019-04-20T19:37:17.169Z,4.40
2019-04-20T19:39:49.425Z,4.00
2019-04-20T19:42:27.434Z,3.27
2019-04-20T19:44:51.336Z,3.63
2019-04-20T19:47:46.806Z,2.70
2019-04-20T19:50:29.404Z,3.20
2019-04-20T19:52:51.782Z,2.93
2019-04-20T19:55:14.411Z,3.10
2019-04-20T19:57:45.177Z,3.03
2019-04-20T19:59:58.193Z,2.90
2019-04-20T20:02:27.589Z,3.10
2019-04-20T20:05:01.283Z,2.73
2019-04-20T20:07:31.038Z,3.00
2019-04-20T20:10:00.505Z,2.90
2019-04-20T20:12:25.535Z,3.03
2019-04-20T20:14:55.223Z,2.80
2019-04-20T20:17:43.770Z,3.07
2019-04-20T20:20:20.308Z,2.70
2019-04-20T20:22:32.308Z,2.80
2019-04-20T20:24:53.216Z,2.73
2019-04-20T20:27:31.725Z,2.70
2019-04-20T20:29:59.728Z,3.00
2019-04-20T20:32:40.823Z,2.90
2019-04-20T20:35:04.428Z,2.50
2019-04-20T20:37:27.126Z,2.70
2019-04-20T20:39:56.975Z,2.73
2019-04-20T20:42:29.602Z,2.80
2019-04-20T20:44:57.530Z,2.83
2019-04-20T20:47:41.182Z,2.90
2019-04-20T20:50:17.410Z,2.80
2019-04-20T20:52:36.802Z,3.00
2019-04-20T20:55:00.691Z,2.93
2019-04-20T20:57:24.308Z,3.10
2019-04-20T20:59:57.528Z,2.80
2019-04-20T21:02:24.419Z,3.13
2019-04-20T21:04:49.175Z,3.20
2019-04-20T21:07:18.457Z,3.10
2019-04-20T21:09:48.211Z,2.77
2019-04-20T21:12:18.671Z,3.00
2019-04-20T21:14:47.242Z,3.23
2019-04-20T21:17:19.558Z,3.30
2019-04-20T21:20:05.295Z,3.10
2019-04-20T21:22:27.273Z,3.20
2019-04-20T21:24:51.101Z,3.20
2019-04-20T21:27:21.997Z,2.90
2019-04-20T21:29:52.485Z,3.07
2019-04-20T21:32:21.566Z,3.03
2019-04-20T21:34:55.585Z,3.27
2019-04-20T21:37:23.067Z,2.80
2019-04-20T21:39:55.338Z,2.57
2019-04-20T21:42:22.687Z,2.60
2019-04-20T21:44:51.975Z,2.77
2019-04-20T21:47:27.282Z,2.70
2019-04-20T21:49:57.494Z,2.83
2019-04-20T21:52:26.970Z,2.67
2019-04-20T21:54:49.805Z,2.90
2019-04-20T21:57:18.267Z,3.00
2019-04-20T21:59:50.254Z,2.90
2019-04-20T22:02:21.700Z,6.13
2019-04-20T22:04:47.268Z,3.13
2019-04-20T22:07:16.507Z,3.10
2019-04-20T22:09:49.195Z,2.73
2019-04-20T22:12:15.996Z,2.83
2019-04-20T22:14:50.929Z,3.33
2019-04-20T22:17:21.177Z,3.60
2019-04-20T22:19:57.900Z,2.80
2019-04-20T22:22:29.354Z,3.17
2019-04-20T22:24:57.866Z,3.03
2019-04-20T22:27:20.258Z,2.93
2019-04-20T22:29:44.025Z,3.57
2019-04-20T22:32:16.502Z,2.80
2019-04-20T22:34:47.502Z,3.27
2019-04-20T22:37:17.849Z,4.87
2019-04-20T22:39:47.775Z,3.60
2019-04-20T22:42:16.161Z,3.80
2019-04-20T22:44:43.269Z,4.10
2019-04-20T22:47:17.135Z,3.87
2019-04-20T22:49:52.566Z,3.70
2019-04-20T22:52:26.950Z,3.00
2019-04-20T22:54:55.292Z,3.87
2019-04-20T22:57:29.811Z,2.97
2019-04-20T22:59:53.697Z,2.93
2019-04-20T23:02:11.682Z,3.50
2019-04-20T23:04:40.875Z,3.13
2019-04-20T23:07:10.593Z,3.43
2019-04-20T23:09:45.718Z,3.10
2019-04-20T23:12:13.337Z,3.10
2019-04-20T23:14:38.853Z,2.83
2019-04-20T23:17:08.176Z,2.80
2019-04-20T23:19:45.662Z,3.10
2019-04-20T23:22:08.949Z,2.67
2019-04-20T23:24:37.364Z,2.90
2019-04-20T23:27:13.988Z,3.07
2019-04-20T23:29:38.347Z,2.87
2019-04-20T23:32:09.828Z,2.73
2019-04-20T23:34:37.624Z,2.40
2019-04-20T23:37:08.747Z,2.90
2019-04-20T23:39:41.567Z,2.60
2019-04-20T23:42:08.762Z,2.60
2019-04-20T23:44:40.112Z,2.70
2019-04-20T23:47:14.755Z,2.53
2019-04-20T23:49:55.708Z,2.60
2019-04-20T23:52:36.558Z,2.60
2019-04-20T23:54:49.059Z,2.40
2019-04-20T23:57:11.931Z,2.53
2019-04-20T23:59:44.850Z,2.67
